This is the latest recevied weather packets stored in our database for station/object KC3SOZ. If no packets are shown the sender has not sent any weather packets the latest 1 day(s).
| Time | Temp. | Humidity | Pressure | Rain* | Wind** | Luminosity | Snow |
|---|---|---|---|---|---|---|---|
| 1778084695 | 15.56° C | 98% | 1008.7 hPa | 0 mm | - | 31 W/m² | - |
| 1778083484 | 15.56° C | 98% | 1008.6 hPa | 0 mm | - | 67 W/m² | - |
| 1778081463 | 15.56° C | 99% | 1007.9 hPa | 1.78 mm | - | 135 W/m² | - |
| 1778079949 | 15.56° C | 99% | 1008.2 hPa | 3.05 mm | - | 111 W/m² | - |
| 1778079040 | 15.56° C | 99% | 1008.8 hPa | 4.83 mm | - | 100 W/m² | - |
| 1778078434 | 15.56° C | 99% | 1008.9 hPa | 0 mm | - | 102 W/m² | - |
| 1778077830 | 15.56° C | 98% | 1009 hPa | 1.78 mm | - | 107 W/m² | - |
| 1778076621 | 15.56° C | 98% | 1008.6 hPa | 1.78 mm | - | 141 W/m² | - |
| 1778075712 | 15.56° C | 98% | 1008.7 hPa | 3.05 mm | - | 70 W/m² | - |
| 1778074498 | 15.56° C | 97% | 1009 hPa | 1.27 mm | - | 58 W/m² | - |
| 1778073589 | 15.56° C | 96% | 1008.9 hPa | 0 mm | - | 45 W/m² | - |
| 1778072377 | 15° C | 99% | 1008.9 hPa | 0 mm | - | 94 W/m² | - |
| 1778071773 | 15.56° C | 95% | 1009.2 hPa | 3.05 mm | - | 37 W/m² | - |
| 1778071470 | 15.56° C | 94% | 1009 hPa | 1.78 mm | - | 38 W/m² | - |
| 1778071168 | 15.56° C | 93% | 1009.2 hPa | 1.27 mm | - | 25 W/m² | - |
| 1778070866 | 15.56° C | 93% | 1009.2 hPa | 1.78 mm | - | 26 W/m² | - |
| 1778070563 | 15.56° C | 93% | 1009.2 hPa | 1.78 mm | - | 25 W/m² | - |
| 1778069352 | 16.11° C | 89% | 1009.3 hPa | 1.27 mm | - | 25 W/m² | - |
| 1778066629 | 17.22° C | 82% | 1008.6 hPa | 0 mm | - | 19 W/m² | - |
| 1778064812 | 18.33° C | 72% | 1008.5 hPa | 0 mm | - | 8 W/m² | - |
| 1778064510 | 18.33° C | 72% | 1008.1 hPa | 0 mm | - | 9 W/m² | - |
| 1778064207 | 18.33° C | 72% | 1008.1 hPa | 0 mm | - | 5 W/m² | - |
| 1778063602 | 18.33° C | 70% | 1007.9 hPa | 0 mm | - | 5 W/m² | - |
| 1778062997 | 18.89° C | 69% | 1007.9 hPa | 0 mm | - | 4 W/m² | - |
| 1778062694 | 18.89° C | 69% | 1007.7 hPa | 0 mm | - | 3 W/m² | - |
* Rain latest hour (hover to see other rain measurements)
** Current wind speed in m/s (hover to see current wind gust speed)